AirNav   Everest Fuels
 
 895 users online  

KFLY Meadow Lake Airport
Colorado Springs, Colorado, USA

GOING TO COLORADO SPRINGS?


FAA INFORMATION EFFECTIVE 10 SEPTEMBER 2020

Location

FAA Identifier: FLY
Lat/Long: 38-56-33.9320N 104-34-11.7440W
38-56.565533N 104-34.195733W
38.9427589,-104.5699289
(estimated)
Elevation: 6877.6 ft. / 2096.3 m (surveyed)
Variation: 11E (1985)
From city: 14 miles NE of COLORADO SPRINGS, CO
Time zone: UTC -6 (UTC -7 during Standard Time)
Zip code: 80831

Airport Operations

Airport use: Open to the public
Activation date: 11/1967
Control tower: no
ARTCC: DENVER CENTER
FSS: DENVER FLIGHT SERVICE STATION
NOTAMs facility: DEN (NOTAM-D service available)
Attendance: 0800-1700
Wind indicator: lighted
Segmented circle: yes
Lights: ACTVT PAPI RWY 15 & 33; MIRL RWY 15/33 - CTAF.
Beacon: white-green (lighted land airport)
Operates sunset to sunrise.

Airport Communications

CTAF/UNICOM: 122.7
WX AWOS-3PT: 118.450 (719-683-5371)
WX ASOS at COS (10 nm SW): PHONE 719-380-6748
WX ASOS at CO90 (17 nm SE): 125.0 (719-637-9696)
WX AWOS-3 at FCS (18 nm SW): 125.0 (719-637-9696)

Nearby radio navigation aids

VOR radial/distance  VOR name  Freq  Var
BRKr084/3.0BLACK FOREST VOR/DME112.5008E
FCSr017/18.0BUTTS VOR/DME108.8012E
PUBr342/39.5PUEBLO VORTAC116.7008E

 
NDB name  Hdg/Dist  Freq  Var  ID
IRONHORSE020/18.033508EIHS .. .... ...

Airport Services

Fuel available: 100LL
Parking: hangars and tiedowns
Airframe service: MAJOR
Powerplant service: MAJOR
Bottled oxygen: NONE
Bulk oxygen: LOW

Runway Information

Runway 15/33

Dimensions: 6000 x 60 ft. / 1829 x 18 m
Surface: asphalt, in excellent condition
Weight bearing capacity: 
Single wheel: 12.5
Runway edge lights: medium intensity
RUNWAY 15  RUNWAY 33
Latitude: 38-57.208218N38-56.277243N
Longitude: 104-34.476687W104-34.053582W
Elevation: 6873.6 ft.6787.2 ft.
Traffic pattern: leftright
Runway heading: 149 magnetic, 160 true329 magnetic, 340 true
Markings: nonprecision, in poor conditionnonprecision, in poor condition
Visual slope indicator: 2-light PAPI on left (3.50 degrees glide path)2-light PAPI on left (3.00 degrees glide path)
Touchdown point: yes, no lightsyes, no lights
Obstructions: 20 ft. road, 550 ft. from runway, 17:1 slope to clearnone

Runway 8/26

Dimensions: 2074 x 35 ft. / 632 x 11 m
RWY 08/26 1149 FT GRVL ON E END OF RWY, 925 FT ASPH ON W END OF RWY.
Surface: asphalt/gravel, in fair condition
RUNWAY 8  RUNWAY 26
Latitude: 38-56.756917N38-56.750298N
Longitude: 104-34.227943W104-33.790507W
Elevation: 6820.3 ft.6772.0 ft.
Traffic pattern: rightleft
Runway heading: 080 magnetic, 091 true260 magnetic, 271 true
Markings: none, in good conditionnone, in good condition
Touchdown point: yes, no lightsyes, no lights
Obstructions: 49 ft. pline, marked, 1460 ft. from runway, 25:1 slope to clear10 ft. road

Runway 15G/33G

Dimensions: 5000 x 200 ft. / 1524 x 61 m
Surface: turf, in fair condition
RUNWAY 15G  RUNWAY 33G
Latitude: 38-56.663012N38-55.886915N
Longitude: 104-34.366337W104-34.013515W
Elevation: 6833.4 ft.6776.6 ft.
Traffic pattern: leftleft
Runway heading: 149 magnetic, 160 true329 magnetic, 340 true
Markings: none, in good conditionnone
Touchdown point: yes, no lightsyes, no lights

Airport Ownership and Management from official FAA records

Ownership: Privately-owned
Owner: MEADOW LAKE AIRPORT ASSOC., INC.
13625 JUDGE ORR ROAD
PEYTON, CO 80831
Phone 719-339-0928
DAVE ELLIOTT ASSOCIATION PRESIDENT.
Manager: DAVE ELLIOTT
13625 JUDGE ORR ROAD
PEYTON, CO 80831
Phone 719-339-0928
ALTN PHONE IS MIKE BARR AT (719) 287-4204

Airport Operational Statistics

Aircraft based on the field: 376
Single engine airplanes: 323
Multi engine airplanes: 18
Jet airplanes: 1
Helicopters: 9
Gliders airplanes: 18
Ultralights: 7
    
Aircraft operations: avg 185/day *
51% local general aviation
30% military
19% transient general aviation
* for 12-month period ending 31 December 2018

Additional Remarks

BE ALERT; INTENSIVE USAF STUDENT TRAINING IN VICINITY OF COLORADO SPRINGS & PUEBLO COLORADO.
RWY 26 HAS PLUS-15 FT ROAD EXTENDING EAST FROM THLD.
PWRD PARAGLIDERS AND MOBILE AEROSTATS OPERATE SE SIDE OF ARPT SURF-500'
RWY 15G/33G HAS EDGES AND THLDS MKD WITH WHITE TIRES.
FOR CD CTC COLORADO SPRINGS APCH AT 719-556-9105.
RWY 08/26 EDGES MKD WITH WHITE REFLECTORS AND TIRES.
GLIDERS OPERATE ON 15G/33G AND WEST SIDE OF ARPT.
RY 26 HAS -4FT TERRAIN 5FT FROM RY EDGE FIRST 100FT ON BOTH SIDES OF RY.
WILDLIFE ON AND INVOF OF AIRPORT
RWY 26 PLUS-4 FT FENCE 50 FT RIGHT OF CNTRLN 95 FT FROM THLD.

Instrument Procedures

There are no published instrument procedures at KFLY.

Some nearby airports with instrument procedures:

KCOS - City of Colorado Springs Municipal Airport (10 nm SW)
KPUB - Pueblo Memorial Airport (39 nm S)
1V6 - Fremont County Airport (40 nm SW)
KAPA - Centennial Airport (40 nm N)
KBKF - Buckley Air Force Base (46 nm N)
 
Loc | Ops | Rwys | IFR | FBO | Links
Com | Nav | Svcs | Stats | Notes

AirBoss

 
Area around KFLY (Meadow Lake Airport)
 
Road maps at: MapQuest Bing Google
 
Aerial photo
WARNING: Photo may not be current or correct
Aerial photo of KFLY (Meadow Lake Airport)
Photo by Mitch Bowers
WWW.IMAGEWERX.US
Photo taken 16-May-2018
looking northwest.

Do you have a better or more recent aerial photo of Meadow Lake Airport that you would like to share? If so, please send us your photo.

 
Sectional chart

 
Airport distance calculator
Flying to Meadow Lake Airport? Find the distance to fly.

From to KFLY

Sunrise and sunset
Times for 28-Sep-2020
 Local
(UTC-6)
 Zulu
(UTC)
Morning civil twilight06:2712:27
Sunrise06:5312:53
Sunset18:4400:44
Evening civil twilight19:1001:10

Current date and time
Zulu (UTC)  28-Sep-2020 12:23:16
Local (UTC-6)  28-Sep-2020 06:23:16
 
METAR
KFLY 281155Z AUTO 34008G14KT 10SM CLR 02/M06 A3044 RMK AO2 T00151057 10035 20015
KCOS 
10nm SW 
281154Z 31009KT 10SM SCT110 04/M03 A3044 RMK AO2 SLP303 T00441033 10061 20044 53009 $
KAFF 
12nm W 
281158Z AUTO 35007KT 10SM BKN090 00/M05 A3043 RMK AO2 SLP306 60000 T00021048 10047 20000 53009
KMNH 
17nm N 
281155Z AUTO 27004KT 10SM SCT095 M01/M02 A3046 RMK AO2
KABH 
17nm SE 
281158Z AUTO 01011KT 10SM BKN110 03/M05 A3044 RMK AO2 SLP318 T00331046 10056 20033 53010
KFCS 
19nm SW 
281158Z AUTO 35012KT 10SM FEW100 05/M07 A3043 RMK AO2 SLP317 T00511068 10074 20050 53010 $
TAF
KCOS 
10nm SW 
280523Z 2806/2906 34010KT P6SM BKN040 FM281000 36006KT P6SM FEW060 FM281500 31015KT P6SM SKC FM282000 35010KT P6SM SKC FM290200 35006KT P6SM SKC AMD NOT SKED 2806/2809
KAFF 
12nm W 
281103Z 2811/2917 34009KT 9999 SCT040 BKN100 QNH3042INS BECMG 2815/2816 36012G18KT 9999 FEW040 SCT100 QNH3033INS TEMPO 2817/2822 36015G25KT 510003 BECMG 2900/2901 36012KT 9999 SKC QNH3036INS BECMG 2915/2916 36012G18KT 9999 SKC QNH3034INS TX13/2821Z TN00/2812Z
KFCS 
19nm SW 
2805/2911 VRB06KT 9999 SCT040 QNH3037INS BECMG 2818/2819 33010G15KT 9999 SKC QNH3034INS BECMG 2823/2824 VRB06KT 9999 SKC QNH3033INS TX14/2822Z TN04/2811Z
NOTAMs
Click for the latest NOTAMs
NOTAMs are issued by the DoD/FAA and will open in a separate window not controlled by AirNav.

 

 
 

FBO, Fuel Providers, and Aircraft Ground Support

  
 Business Name 
 
 Contact 
 
 Services / Description 
 
Fuel Prices
 
Comments
  
Phantom Fuel, LLC 719-683-2202
[email]
Aviation fuel

More info about Phantom Fuel, LLC
Phillips 66
100LL
SS $3.85 
 Updated 25-Sep-2020
 
   write
American Aviation 719-683-2547
no information available

If you are affiliated with American Aviation and would like to show here your services, contact info, web link, logo, and more, click here
100LL
FS $4.02 
 Updated 10-Sep-2020
 
   1 read write
FS=Full service
SS=Self service
Update Fuel Prices
 

Would you like to see your business listed on this page?

 If your business provides an interesting product or service to pilots, flight crews, aircraft, or users of the Meadow Lake Airport, you should consider listing it here.  To start the listing process, click on the button below
 
Add a business
 

Other Pages about Meadow Lake Airport

www.KFLY.org
www.cosairports.com
 
Update a link
 
Copyright © AirNav, LLC. All rights reserved. Privacy Policy  Contact